Terminal Aerodrome Forecast
Issued by NWS Sterling, VA

Current Version | Previous Version | Graphics & Text | Print | Product List | Glossary On
Versions: 1 2 3 4 5 6 7 8 9 10 11 12 13 14 15 16 17 18 19 20
920
FTUS41 KLWX 252328
TAFMRB
TAF
KMRB 252328Z 2600/2624 10004KT P6SM OVC080
     FM260400 07004KT P6SM OVC025
     FM260500 08005KT P6SM OVC015
     FM260700 08006KT P6SM OVC008
     FM261500 11007KT 4SM -DZ OVC008
     FM262100 12008KT 3SM -DZ OVC015=

USA.gov is the U.S. government's official web portal to all federal, state and local government web resources and services.